sensor_id;sensor_type;location;lat;lon;timestamp;pressure;altitude;pressure_sealevel;temperature;humidity
15050;BME280;7622;42.724;23.250;2022-11-15T00:00:43;95258.25;;;5.17;100.00
15050;BME280;7622;42.724;23.250;2022-11-15T00:03:13;95263.56;;;5.13;100.00
15050;BME280;7622;42.724;23.250;2022-11-15T00:05:41;95257.22;;;5.19;100.00
15050;BME280;7622;42.724;23.250;2022-11-15T00:08:08;95258.25;;;5.17;100.00
15050;BME280;7622;42.724;23.250;2022-11-15T00:10:35;95262.47;;;5.18;100.00
15050;BME280;7622;42.724;23.250;2022-11-15T00:13:05;95255.50;;;5.05;100.00
15050;BME280;7622;42.724;23.250;2022-11-15T00:15:31;95244.97;;;4.96;100.00
15050;BME280;7622;42.724;23.250;2022-11-15T00:18:00;95250.03;;;4.97;100.00
15050;BME280;7622;42.724;23.250;2022-11-15T00:20:27;95241.47;;;4.97;100.00
15050;BME280;7622;42.724;23.250;2022-11-15T00:22:55;95241.97;;;4.75;100.00
15050;BME280;7622;42.724;23.250;2022-11-15T00:25:22;95254.09;;;4.73;100.00
15050;BME280;7622;42.724;23.250;2022-11-15T00:27:49;95240.41;;;4.58;100.00
15050;BME280;7622;42.724;23.250;2022-11-15T00:30:17;95245.94;;;4.52;100.00
15050;BME280;7622;42.724;23.250;2022-11-15T00:32:44;95239.78;;;4.41;100.00
15050;BME280;7622;42.724;23.250;2022-11-15T00:35:10;95240.63;;;4.41;100.00
15050;BME280;7622;42.724;23.250;2022-11-15T00:37:37;95253.19;;;4.74;100.00
15050;BME280;7622;42.724;23.250;2022-11-15T00:40:06;95246.91;;;4.78;100.00
15050;BME280;7622;42.724;23.250;2022-11-15T00:42:33;95172.13;;;3.97;100.00
15050;BME280;7622;42.724;23.250;2022-11-15T00:45:00;95243.44;;;4.36;100.00
15050;BME280;7622;42.724;23.250;2022-11-15T00:47:27;95240.88;;;4.51;100.00
15050;BME280;7622;42.724;23.250;2022-11-15T00:49:54;95232.78;;;4.57;100.00
15050;BME280;7622;42.724;23.250;2022-11-15T00:52:20;95232.78;;;4.57;100.00
15050;BME280;7622;42.724;23.250;2022-11-15T00:54:47;95239.25;;;4.35;100.00
15050;BME280;7622;42.724;23.250;2022-11-15T00:57:15;95227.00;;;4.25;100.00
15050;BME280;7622;42.724;23.250;2022-11-15T00:59:42;95237.66;;;4.19;100.00
15050;BME280;7622;42.724;23.250;2022-11-15T01:02:09;95233.44;;;4.32;100.00
15050;BME280;7622;42.724;23.250;2022-11-15T01:04:36;95222.78;;;4.10;100.00
15050;BME280;7622;42.724;23.250;2022-11-15T01:07:02;95224.16;;;4.15;100.00
15050;BME280;7622;42.724;23.250;2022-11-15T01:09:29;95232.16;;;4.39;100.00
15050;BME280;7622;42.724;23.250;2022-11-15T01:11:56;95222.69;;;4.25;100.00
15050;BME280;7622;42.724;23.250;2022-11-15T01:14:24;95237.00;;;4.15;100.00
15050;BME280;7622;42.724;23.250;2022-11-15T01:16:51;95225.09;;;4.28;100.00
15050;BME280;7622;42.724;23.250;2022-11-15T01:19:18;95223.25;;;4.45;100.00
15050;BME280;7622;42.724;23.250;2022-11-15T01:21:44;95226.38;;;4.35;100.00
15050;BME280;7622;42.724;23.250;2022-11-15T01:24:12;95227.84;;;4.25;100.00
15050;BME280;7622;42.724;23.250;2022-11-15T01:26:39;95227.31;;;4.49;100.00
15050;BME280;7622;42.724;23.250;2022-11-15T01:29:06;95232.69;;;4.58;100.00
15050;BME280;7622;42.724;23.250;2022-11-15T01:31:34;95228.28;;;4.60;100.00
15050;BME280;7622;42.724;23.250;2022-11-15T01:34:00;95227.75;;;4.55;100.00
15050;BME280;7622;42.724;23.250;2022-11-15T01:36:29;95226.63;;;4.59;100.00
15050;BME280;7622;42.724;23.250;2022-11-15T01:38:56;95222.25;;;4.47;100.00
15050;BME280;7622;42.724;23.250;2022-11-15T01:41:25;95220.13;;;4.25;100.00
15050;BME280;7622;42.724;23.250;2022-11-15T01:43:54;95216.91;;;4.22;100.00
15050;BME280;7622;42.724;23.250;2022-11-15T01:46:27;95214.44;;;4.06;100.00
15050;BME280;7622;42.724;23.250;2022-11-15T01:48:59;95217.28;;;4.16;100.00
15050;BME280;7622;42.724;23.250;2022-11-15T01:51:30;95212.78;;;4.19;100.00
15050;BME280;7622;42.724;23.250;2022-11-15T01:54:01;95210.38;;;4.30;100.00
15050;BME280;7622;42.724;23.250;2022-11-15T01:56:31;95214.63;;;4.46;100.00
15050;BME280;7622;42.724;23.250;2022-11-15T01:59:02;95214.63;;;4.46;100.00
15050;BME280;7622;42.724;23.250;2022-11-15T02:01:30;95204.41;;;4.58;100.00
15050;BME280;7622;42.724;23.250;2022-11-15T02:04:02;95210.56;;;4.56;100.00
15050;BME280;7622;42.724;23.250;2022-11-15T02:06:30;95213.69;;;4.47;100.00
15050;BME280;7622;42.724;23.250;2022-11-15T02:08:57;95211.56;;;4.53;100.00
15050;BME280;7622;42.724;23.250;2022-11-15T02:11:25;95200.84;;;4.47;100.00
15050;BME280;7622;42.724;23.250;2022-11-15T02:13:53;95203.13;;;4.51;100.00
15050;BME280;7622;42.724;23.250;2022-11-15T02:16:27;95207.28;;;4.40;100.00
15050;BME280;7622;42.724;23.250;2022-11-15T02:19:09;95202.50;;;4.19;100.00
15050;BME280;7622;42.724;23.250;2022-11-15T02:21:43;95212.41;;;4.25;100.00
15050;BME280;7622;42.724;23.250;2022-11-15T02:24:49;95202.78;;;4.15;100.00
15050;BME280;7622;42.724;23.250;2022-11-15T02:27:46;95206.63;;;3.93;100.00
15050;BME280;7622;42.724;23.250;2022-11-15T02:30:24;95201.13;;;4.00;100.00
15050;BME280;7622;42.724;23.250;2022-11-15T02:32:56;95196.38;;;4.08;100.00
15050;BME280;7622;42.724;23.250;2022-11-15T02:35:29;95198.00;;;4.23;100.00
15050;BME280;7622;42.724;23.250;2022-11-15T02:38:05;95195.16;;;4.13;100.00
15050;BME280;7622;42.724;23.250;2022-11-15T02:40:38;95168.34;;;3.89;100.00
15050;BME280;7622;42.724;23.250;2022-11-15T02:43:10;95203.50;;;4.17;100.00
15050;BME280;7622;42.724;23.250;2022-11-15T02:45:59;95202.50;;;4.33;100.00
15050;BME280;7622;42.724;23.250;2022-11-15T02:48:29;95201.03;;;4.15;100.00
15050;BME280;7622;42.724;23.250;2022-11-15T02:50:58;95198.81;;;4.23;100.00
15050;BME280;7622;42.724;23.250;2022-11-15T02:53:25;95199.03;;;4.34;100.00
15050;BME280;7622;42.724;23.250;2022-11-15T02:55:53;95201.13;;;4.28;100.00
15050;BME280;7622;42.724;23.250;2022-11-15T02:58:49;95200.84;;;4.32;100.00
15050;BME280;7622;42.724;23.250;2022-11-15T03:01:31;95209.94;;;4.24;100.00
15050;BME280;7622;42.724;23.250;2022-11-15T03:04:14;95220.31;;;4.36;100.00
15050;BME280;7622;42.724;23.250;2022-11-15T03:06:49;95184.31;;;4.08;100.00
15050;BME280;7622;42.724;23.250;2022-11-15T03:09:26;95209.56;;;4.44;100.00
15050;BME280;7622;42.724;23.250;2022-11-15T03:11:59;95197.97;;;4.51;100.00
15050;BME280;7622;42.724;23.250;2022-11-15T03:14:30;95199.00;;;4.49;100.00
15050;BME280;7622;42.724;23.250;2022-11-15T03:17:06;95196.63;;;4.31;100.00
15050;BME280;7622;42.724;23.250;2022-11-15T03:19:42;95189.09;;;4.14;100.00
15050;BME280;7622;42.724;23.250;2022-11-15T03:22:14;95192.75;;;4.10;100.00
15050;BME280;7622;42.724;23.250;2022-11-15T03:24:43;95193.31;;;4.15;100.00
15050;BME280;7622;42.724;23.250;2022-11-15T03:27:13;95188.53;;;4.09;100.00
15050;BME280;7622;42.724;23.250;2022-11-15T03:29:45;95188.38;;;4.12;100.00
15050;BME280;7622;42.724;23.250;2022-11-15T03:32:17;95175.13;;;4.04;100.00
15050;BME280;7622;42.724;23.250;2022-11-15T03:34:49;95182.47;;;3.96;100.00
15050;BME280;7622;42.724;23.250;2022-11-15T03:37:21;95187.38;;;4.01;100.00
15050;BME280;7622;42.724;23.250;2022-11-15T03:39:48;95176.41;;;3.83;100.00
15050;BME280;7622;42.724;23.250;2022-11-15T03:42:21;95178.16;;;3.96;100.00
15050;BME280;7622;42.724;23.250;2022-11-15T03:44:54;95186.41;;;4.02;100.00
15050;BME280;7622;42.724;23.250;2022-11-15T03:47:25;95182.31;;;3.99;100.00
15050;BME280;7622;42.724;23.250;2022-11-15T03:49:58;95175.88;;;4.06;100.00
15050;BME280;7622;42.724;23.250;2022-11-15T03:52:31;95182.41;;;4.12;100.00
15050;BME280;7622;42.724;23.250;2022-11-15T03:55:00;95165.22;;;4.12;100.00
15050;BME280;7622;42.724;23.250;2022-11-15T03:57:27;95163.50;;;4.13;100.00
15050;BME280;7622;42.724;23.250;2022-11-15T03:59:54;95166.34;;;3.94;100.00
15050;BME280;7622;42.724;23.250;2022-11-15T04:02:22;95171.66;;;4.19;100.00
15050;BME280;7622;42.724;23.250;2022-11-15T04:04:49;95163.28;;;4.30;100.00
15050;BME280;7622;42.724;23.250;2022-11-15T04:07:16;95156.97;;;4.35;100.00
15050;BME280;7622;42.724;23.250;2022-11-15T04:09:43;95123.66;;;4.06;100.00
15050;BME280;7622;42.724;23.250;2022-11-15T04:12:27;95160.00;;;4.28;100.00
15050;BME280;7622;42.724;23.250;2022-11-15T04:14:58;95159.25;;;4.40;100.00
15050;BME280;7622;42.724;23.250;2022-11-15T04:17:37;95161.72;;;4.42;100.00
15050;BME280;7622;42.724;23.250;2022-11-15T04:20:06;95156.75;;;4.53;100.00
15050;BME280;7622;42.724;23.250;2022-11-15T04:22:52;95158.31;;;4.41;100.00
15050;BME280;7622;42.724;23.250;2022-11-15T04:25:37;95138.31;;;4.32;100.00
15050;BME280;7622;42.724;23.250;2022-11-15T04:28:03;95154.00;;;4.42;100.00
15050;BME280;7622;42.724;23.250;2022-11-15T04:30:30;95159.72;;;4.32;100.00
15050;BME280;7622;42.724;23.250;2022-11-15T04:32:58;95159.53;;;4.35;100.00
15050;BME280;7622;42.724;23.250;2022-11-15T04:35:25;95149.34;;;4.34;100.00
15050;BME280;7622;42.724;23.250;2022-11-15T04:37:53;95149.44;;;4.18;100.00
15050;BME280;7622;42.724;23.250;2022-11-15T04:40:19;95150.34;;;4.17;100.00
15050;BME280;7622;42.724;23.250;2022-11-15T04:42:46;95160.09;;;4.26;100.00
15050;BME280;7622;42.724;23.250;2022-11-15T04:45:13;95157.59;;;4.11;100.00
15050;BME280;7622;42.724;23.250;2022-11-15T04:47:43;95157.16;;;4.04;100.00
15050;BME280;7622;42.724;23.250;2022-11-15T04:50:11;95153.47;;;4.22;100.00
15050;BME280;7622;42.724;23.250;2022-11-15T04:52:39;95165.41;;;4.09;100.00
15050;BME280;7622;42.724;23.250;2022-11-15T04:55:06;95161.53;;;4.16;100.00
15050;BME280;7622;42.724;23.250;2022-11-15T04:57:33;95169.69;;;3.80;100.00
15050;BME280;7622;42.724;23.250;2022-11-15T05:00:00;95167.41;;;3.76;100.00
15050;BME280;7622;42.724;23.250;2022-11-15T05:02:28;95163.50;;;3.40;100.00
15050;BME280;7622;42.724;23.250;2022-11-15T05:05:16;95169.28;;;3.14;100.00
15050;BME280;7622;42.724;23.250;2022-11-15T05:07:42;95176.44;;;3.09;100.00
15050;BME280;7622;42.724;23.250;2022-11-15T05:10:09;95174.63;;;2.80;100.00
15050;BME280;7622;42.724;23.250;2022-11-15T05:12:36;95171.09;;;2.66;100.00
15050;BME280;7622;42.724;23.250;2022-11-15T05:15:03;95167.06;;;2.62;100.00
15050;BME280;7622;42.724;23.250;2022-11-15T05:17:30;95166.97;;;2.48;100.00
15050;BME280;7622;42.724;23.250;2022-11-15T05:19:57;95153.97;;;2.51;100.00
15050;BME280;7622;42.724;23.250;2022-11-15T05:22:26;95157.38;;;2.67;100.00
15050;BME280;7622;42.724;23.250;2022-11-15T05:24:53;95123.22;;;2.51;100.00
15050;BME280;7622;42.724;23.250;2022-11-15T05:27:20;95158.34;;;2.65;100.00
15050;BME280;7622;42.724;23.250;2022-11-15T05:29:47;95145.03;;;2.58;100.00
15050;BME280;7622;42.724;23.250;2022-11-15T05:32:13;95047.19;;;2.05;100.00
15050;BME280;7622;42.724;23.250;2022-11-15T05:34:40;95150.00;;;2.61;100.00
15050;BME280;7622;42.724;23.250;2022-11-15T05:37:07;95152.81;;;2.72;100.00
15050;BME280;7622;42.724;23.250;2022-11-15T05:39:35;95153.97;;;2.83;100.00
15050;BME280;7622;42.724;23.250;2022-11-15T05:42:06;95154.25;;;2.92;100.00
15050;BME280;7622;42.724;23.250;2022-11-15T05:44:36;95159.94;;;2.83;100.00
15050;BME280;7622;42.724;23.250;2022-11-15T05:47:05;95155.78;;;2.81;100.00
15050;BME280;7622;42.724;23.250;2022-11-15T05:49:36;95159.09;;;2.83;100.00
15050;BME280;7622;42.724;23.250;2022-11-15T05:52:07;95168.19;;;2.72;100.00
15050;BME280;7622;42.724;23.250;2022-11-15T05:54:37;95164.34;;;3.11;100.00
15050;BME280;7622;42.724;23.250;2022-11-15T05:57:05;95171.03;;;3.43;100.00
15050;BME280;7622;42.724;23.250;2022-11-15T05:59:33;95165.53;;;3.49;100.00
15050;BME280;7622;42.724;23.250;2022-11-15T06:02:01;95171.41;;;3.51;100.00
15050;BME280;7622;42.724;23.250;2022-11-15T06:04:27;95178.47;;;3.48;100.00
15050;BME280;7622;42.724;23.250;2022-11-15T06:06:54;95171.66;;;3.47;100.00
15050;BME280;7622;42.724;23.250;2022-11-15T06:09:21;95177.13;;;3.56;100.00
15050;BME280;7622;42.724;23.250;2022-11-15T06:11:49;95169.06;;;3.63;100.00
15050;BME280;7622;42.724;23.250;2022-11-15T06:14:16;95173.28;;;3.64;100.00
15050;BME280;7622;42.724;23.250;2022-11-15T06:16:43;95178.56;;;3.61;100.00
15050;BME280;7622;42.724;23.250;2022-11-15T06:19:10;95171.44;;;3.66;100.00
15050;BME280;7622;42.724;23.250;2022-11-15T06:21:37;95170.06;;;3.88;100.00
15050;BME280;7622;42.724;23.250;2022-11-15T06:24:05;95168.88;;;4.08;100.00
15050;BME280;7622;42.724;23.250;2022-11-15T06:26:32;95162.00;;;3.94;100.00
15050;BME280;7622;42.724;23.250;2022-11-15T06:29:02;95168.88;;;4.08;100.00
15050;BME280;7622;42.724;23.250;2022-11-15T06:31:29;95164.22;;;4.01;100.00
15050;BME280;7622;42.724;23.250;2022-11-15T06:33:56;95163.19;;;4.17;100.00
15050;BME280;7622;42.724;23.250;2022-11-15T06:36:22;95158.72;;;4.35;100.00
15050;BME280;7622;42.724;23.250;2022-11-15T06:38:49;95159.88;;;4.29;100.00
15050;BME280;7622;42.724;23.250;2022-11-15T06:41:16;95172.03;;;4.27;100.00
15050;BME280;7622;42.724;23.250;2022-11-15T06:43:43;95165.59;;;4.34;100.00
15050;BME280;7622;42.724;23.250;2022-11-15T06:46:11;95168.84;;;4.51;100.00
15050;BME280;7622;42.724;23.250;2022-11-15T06:48:38;95159.47;;;4.50;100.00
15050;BME280;7622;42.724;23.250;2022-11-15T06:51:05;95165.56;;;4.63;100.00
15050;BME280;7622;42.724;23.250;2022-11-15T06:53:32;95158.53;;;4.65;100.00
15050;BME280;7622;42.724;23.250;2022-11-15T06:56:00;95161.19;;;4.63;100.00
15050;BME280;7622;42.724;23.250;2022-11-15T06:58:27;95162.13;;;5.03;100.00
15050;BME280;7622;42.724;23.250;2022-11-15T07:00:58;95168.13;;;5.81;100.00
15050;BME280;7622;42.724;23.250;2022-11-15T07:03:26;95160.78;;;5.50;100.00
15050;BME280;7622;42.724;23.250;2022-11-15T07:05:55;95158.59;;;5.44;100.00
15050;BME280;7622;42.724;23.250;2022-11-15T07:08:23;95143.69;;;5.09;100.00
15050;BME280;7622;42.724;23.250;2022-11-15T07:10:50;95160.56;;;5.01;100.00
15050;BME280;7622;42.724;23.250;2022-11-15T07:13:17;95153.84;;;4.98;100.00
15050;BME280;7622;42.724;23.250;2022-11-15T07:15:44;95149.81;;;4.94;100.00
15050;BME280;7622;42.724;23.250;2022-11-15T07:18:11;95156.72;;;4.94;100.00
15050;BME280;7622;42.724;23.250;2022-11-15T07:20:39;95160.03;;;4.69;100.00
15050;BME280;7622;42.724;23.250;2022-11-15T07:23:06;95160.47;;;4.75;100.00
15050;BME280;7622;42.724;23.250;2022-11-15T07:25:32;95165.94;;;4.84;100.00
15050;BME280;7622;42.724;23.250;2022-11-15T07:28:00;95140.88;;;4.73;100.00
15050;BME280;7622;42.724;23.250;2022-11-15T07:30:27;95165.66;;;4.88;100.00
15050;BME280;7622;42.724;23.250;2022-11-15T07:32:54;95161.50;;;4.86;100.00
15050;BME280;7622;42.724;23.250;2022-11-15T07:35:21;95165.84;;;4.85;100.00
15050;BME280;7622;42.724;23.250;2022-11-15T07:37:55;95131.47;;;4.86;100.00
15050;BME280;7622;42.724;23.250;2022-11-15T07:40:22;95159.72;;;5.00;100.00
15050;BME280;7622;42.724;23.250;2022-11-15T07:42:49;95162.81;;;5.05;100.00
15050;BME280;7622;42.724;23.250;2022-11-15T07:45:23;95166.28;;;4.92;100.00
15050;BME280;7622;42.724;23.250;2022-11-15T07:47:51;95166.66;;;5.12;100.00
15050;BME280;7622;42.724;23.250;2022-11-15T07:50:18;95166.47;;;5.15;100.00
15050;BME280;7622;42.724;23.250;2022-11-15T07:52:45;95160.81;;;5.10;100.00
15050;BME280;7622;42.724;23.250;2022-11-15T07:55:13;95160.59;;;5.13;100.00
15050;BME280;7622;42.724;23.250;2022-11-15T07:57:40;95155.34;;;4.88;100.00
15050;BME280;7622;42.724;23.250;2022-11-15T08:00:08;95163.66;;;4.79;100.00
15050;BME280;7622;42.724;23.250;2022-11-15T08:02:35;95165.50;;;4.77;100.00
15050;BME280;7622;42.724;23.250;2022-11-15T08:05:01;95161.91;;;4.80;100.00
15050;BME280;7622;42.724;23.250;2022-11-15T08:07:30;95126.84;;;4.64;100.00
15050;BME280;7622;42.724;23.250;2022-11-15T08:09:57;95151.66;;;4.92;100.00
15050;BME280;7622;42.724;23.250;2022-11-15T08:12:28;95132.06;;;4.77;100.00
15050;BME280;7622;42.724;23.250;2022-11-15T08:14:55;95152.81;;;5.01;100.00
15050;BME280;7622;42.724;23.250;2022-11-15T08:17:22;95146.38;;;5.21;100.00
15050;BME280;7622;42.724;23.250;2022-11-15T08:19:48;95144.94;;;5.17;100.00
15050;BME280;7622;42.724;23.250;2022-11-15T08:22:15;95144.56;;;5.23;100.00
15050;BME280;7622;42.724;23.250;2022-11-15T08:24:42;95142.16;;;5.20;100.00
15050;BME280;7622;42.724;23.250;2022-11-15T08:27:09;95134.13;;;5.11;100.00
15050;BME280;7622;42.724;23.250;2022-11-15T08:29:42;95138.34;;;5.12;100.00
15050;BME280;7622;42.724;23.250;2022-11-15T08:32:09;95143.84;;;5.33;100.00
15050;BME280;7622;42.724;23.250;2022-11-15T08:34:36;95130.38;;;5.55;100.00
15050;BME280;7622;42.724;23.250;2022-11-15T08:37:03;95135.13;;;5.61;100.00
15050;BME280;7622;42.724;23.250;2022-11-15T08:39:30;95131.84;;;5.72;100.00
15050;BME280;7622;42.724;23.250;2022-11-15T08:41:57;95135.53;;;5.68;100.00
15050;BME280;7622;42.724;23.250;2022-11-15T08:44:24;95138.16;;;5.80;100.00
15050;BME280;7622;42.724;23.250;2022-11-15T08:46:52;95134.63;;;5.69;100.00
15050;BME280;7622;42.724;23.250;2022-11-15T08:49:19;95133.69;;;5.70;100.00
15050;BME280;7622;42.724;23.250;2022-11-15T08:51:45;95123.78;;;5.76;100.00
15050;BME280;7622;42.724;23.250;2022-11-15T08:54:12;95119.47;;;5.64;100.00
15050;BME280;7622;42.724;23.250;2022-11-15T08:56:40;95115.25;;;5.63;100.00
15050;BME280;7622;42.724;23.250;2022-11-15T08:59:07;95112.34;;;5.55;100.00
15050;BME280;7622;42.724;23.250;2022-11-15T09:01:33;95117.31;;;5.71;100.00
15050;BME280;7622;42.724;23.250;2022-11-15T09:04:02;95116.16;;;5.75;100.00
15050;BME280;7622;42.724;23.250;2022-11-15T09:06:29;95100.69;;;5.62;100.00
15050;BME280;7622;42.724;23.250;2022-11-15T09:08:56;95095.88;;;5.45;100.00
15050;BME280;7622;42.724;23.250;2022-11-15T09:11:23;95105.25;;;5.84;100.00
15050;BME280;7622;42.724;23.250;2022-11-15T09:13:50;95107.09;;;5.82;100.00
15050;BME280;7622;42.724;23.250;2022-11-15T09:16:17;95096.59;;;5.72;100.00
15050;BME280;7622;42.724;23.250;2022-11-15T09:18:43;95096.19;;;5.78;100.00
15050;BME280;7622;42.724;23.250;2022-11-15T09:21:12;95101.53;;;5.88;100.00
15050;BME280;7622;42.724;23.250;2022-11-15T09:23:39;95094.09;;;5.83;100.00
15050;BME280;7622;42.724;23.250;2022-11-15T09:26:05;95088.13;;;5.96;100.00
15050;BME280;7622;42.724;23.250;2022-11-15T09:28:33;95081.50;;;6.17;100.00
15050;BME280;7622;42.724;23.250;2022-11-15T09:31:02;95080.38;;;6.21;100.00
15050;BME280;7622;42.724;23.250;2022-11-15T09:33:29;95070.22;;;5.94;100.00
15050;BME280;7622;42.724;23.250;2022-11-15T09:35:59;95060.50;;;5.85;100.00
15050;BME280;7622;42.724;23.250;2022-11-15T09:38:28;95066.28;;;5.88;100.00
15050;BME280;7622;42.724;23.250;2022-11-15T09:41:10;95065.88;;;5.95;100.00
15050;BME280;7622;42.724;23.250;2022-11-15T09:43:47;95057.44;;;5.92;100.00
15050;BME280;7622;42.724;23.250;2022-11-15T09:46:22;95059.06;;;6.06;100.00
15050;BME280;7622;42.724;23.250;2022-11-15T09:48:54;95054.72;;;6.07;100.00
15050;BME280;7622;42.724;23.250;2022-11-15T09:51:28;95056.28;;;6.33;100.00
15050;BME280;7622;42.724;23.250;2022-11-15T09:54:02;95041.53;;;5.99;100.00
15050;BME280;7622;42.724;23.250;2022-11-15T09:56:32;95048.13;;;5.90;100.00
15050;BME280;7622;42.724;23.250;2022-11-15T09:59:13;95043.88;;;6.02;100.00
15050;BME280;7622;42.724;23.250;2022-11-15T10:01:49;95020.97;;;6.10;100.00
15050;BME280;7622;42.724;23.250;2022-11-15T10:04:20;95035.00;;;6.42;100.00
15050;BME280;7622;42.724;23.250;2022-11-15T10:06:53;95035.53;;;6.58;100.00
15050;BME280;7622;42.724;23.250;2022-11-15T10:09:24;95032.22;;;6.69;100.00
15050;BME280;7622;42.724;23.250;2022-11-15T10:11:52;95032.03;;;6.59;100.00
15050;BME280;7622;42.724;23.250;2022-11-15T10:14:22;95020.81;;;6.71;100.00
15050;BME280;7622;42.724;23.250;2022-11-15T10:20:08;95021.06;;;6.68;100.00
15050;BME280;7622;42.724;23.250;2022-11-15T10:22:40;95021.66;;;6.72;100.00
15050;BME280;7622;42.724;23.250;2022-11-15T10:25:16;95015.38;;;6.98;100.00
15050;BME280;7622;42.724;23.250;2022-11-15T10:27:47;95011.31;;;7.07;100.00
15050;BME280;7622;42.724;23.250;2022-11-15T10:30:17;94961.06;;;7.00;100.00
15050;BME280;7622;42.724;23.250;2022-11-15T10:32:46;94998.69;;;7.37;100.00
15050;BME280;7622;42.724;23.250;2022-11-15T10:35:24;94991.31;;;7.44;100.00
15050;BME280;7622;42.724;23.250;2022-11-15T10:37:51;94988.03;;;7.53;100.00
15050;BME280;7622;42.724;23.250;2022-11-15T10:40:21;94985.56;;;7.51;100.00
15050;BME280;7622;42.724;23.250;2022-11-15T10:43:03;94978.53;;;7.54;100.00
15050;BME280;7622;42.724;23.250;2022-11-15T10:45:32;94974.88;;;7.67;100.00
15050;BME280;7622;42.724;23.250;2022-11-15T10:48:19;94973.56;;;7.95;100.00
15050;BME280;7622;42.724;23.250;2022-11-15T10:50:47;94974.69;;;8.02;100.00
15050;BME280;7622;42.724;23.250;2022-11-15T10:53:20;94961.72;;;8.24;100.00
15050;BME280;7622;42.724;23.250;2022-11-15T10:55:52;94965.34;;;8.65;100.00
15050;BME280;7622;42.724;23.250;2022-11-15T10:58:22;94954.38;;;9.14;100.00
15050;BME280;7622;42.724;23.250;2022-11-15T11:00:53;94945.38;;;9.69;100.00
15050;BME280;7622;42.724;23.250;2022-11-15T11:03:31;94945.28;;;9.80;100.00
15050;BME280;7622;42.724;23.250;2022-11-15T11:06:06;94943.72;;;10.08;100.00
15050;BME280;7622;42.724;23.250;2022-11-15T11:08:33;94917.50;;;10.11;100.00
15050;BME280;7622;42.724;23.250;2022-11-15T11:11:03;94941.34;;;10.45;100.00
15050;BME280;7622;42.724;23.250;2022-11-15T11:13:31;94932.88;;;10.72;100.00
15050;BME280;7622;42.724;23.250;2022-11-15T11:18:53;94926.69;;;11.02;100.00
15050;BME280;7622;42.724;23.250;2022-11-15T11:21:26;94914.84;;;11.36;100.00
15050;BME280;7622;42.724;23.250;2022-11-15T11:24:01;94919.91;;;11.38;100.00
15050;BME280;7622;42.724;23.250;2022-11-15T11:26:42;94908.16;;;11.34;100.00
15050;BME280;7622;42.724;23.250;2022-11-15T11:29:23;94888.06;;;11.17;100.00
15050;BME280;7622;42.724;23.250;2022-11-15T11:31:58;94906.72;;;11.12;100.00
15050;BME280;7622;42.724;23.250;2022-11-15T11:34:37;94901.69;;;10.82;100.00
15050;BME280;7622;42.724;23.250;2022-11-15T11:37:13;94887.88;;;10.91;100.00
15050;BME280;7622;42.724;23.250;2022-11-15T11:39:48;94881.28;;;10.96;100.00
15050;BME280;7622;42.724;23.250;2022-11-15T11:42:26;94869.75;;;11.18;100.00
15050;BME280;7622;42.724;23.250;2022-11-15T11:45:00;94862.13;;;11.34;100.00
15050;BME280;7622;42.724;23.250;2022-11-15T11:47:31;94865.84;;;11.32;100.00
15050;BME280;7622;42.724;23.250;2022-11-15T11:50:02;94862.53;;;11.39;100.00
15050;BME280;7622;42.724;23.250;2022-11-15T11:52:41;94857.44;;;11.48;100.00
15050;BME280;7622;42.724;23.250;2022-11-15T11:55:15;94855.63;;;11.48;100.00
15050;BME280;7622;42.724;23.250;2022-11-15T11:57:48;94854.09;;;11.28;100.00
15050;BME280;7622;42.724;23.250;2022-11-15T12:00:19;94852.78;;;11.41;100.00
15050;BME280;7622;42.724;23.250;2022-11-15T12:02:52;94850.28;;;11.22;100.00
15050;BME280;7622;42.724;23.250;2022-11-15T12:05:28;94822.44;;;11.05;100.00
15050;BME280;7622;42.724;23.250;2022-11-15T12:08:02;94834.50;;;11.06;100.00
15050;BME280;7622;42.724;23.250;2022-11-15T12:10:32;94833.13;;;11.02;100.00
15050;BME280;7622;42.724;23.250;2022-11-15T12:13:07;94824.13;;;10.87;100.00
15050;BME280;7622;42.724;23.250;2022-11-15T12:15:39;94821.19;;;10.62;100.00
15050;BME280;7622;42.724;23.250;2022-11-15T12:18:12;94822.28;;;10.70;100.00
15050;BME280;7622;42.724;23.250;2022-11-15T12:20:47;94815.69;;;10.65;100.00
15050;BME280;7622;42.724;23.250;2022-11-15T12:23:20;94812.84;;;10.59;100.00
15050;BME280;7622;42.724;23.250;2022-11-15T12:25:53;94818.41;;;10.74;100.00
15050;BME280;7622;42.724;23.250;2022-11-15T12:28:33;94814.63;;;10.58;100.00
15050;BME280;7622;42.724;23.250;2022-11-15T12:31:06;94798.63;;;10.53;100.00
15050;BME280;7622;42.724;23.250;2022-11-15T12:33:40;94796.78;;;10.36;100.00
15050;BME280;7622;42.724;23.250;2022-11-15T12:36:10;94794.84;;;10.38;100.00
15050;BME280;7622;42.724;23.250;2022-11-15T12:38:54;94795.69;;;10.29;100.00
15050;BME280;7622;42.724;23.250;2022-11-15T12:41:22;94793.22;;;10.27;100.00
15050;BME280;7622;42.724;23.250;2022-11-15T12:43:51;94789.78;;;9.79;100.00
15050;BME280;7622;42.724;23.250;2022-11-15T12:49:44;94783.78;;;9.78;100.00
15050;BME280;7622;42.724;23.250;2022-11-15T12:52:11;94722.59;;;9.47;100.00
15050;BME280;7622;42.724;23.250;2022-11-15T12:54:56;94778.19;;;9.93;100.00
15050;BME280;7622;42.724;23.250;2022-11-15T12:57:35;94772.03;;;10.13;100.00
15050;BME280;7622;42.724;23.250;2022-11-15T13:03:24;94770.38;;;9.83;100.00
15050;BME280;7622;42.724;23.250;2022-11-15T13:05:57;94767.38;;;9.68;100.00
15050;BME280;7622;42.724;23.250;2022-11-15T13:08:46;94761.63;;;9.55;100.00
15050;BME280;7622;42.724;23.250;2022-11-15T13:11:45;94762.19;;;9.68;100.00
15050;BME280;7622;42.724;23.250;2022-11-15T13:17:34;94741.59;;;9.67;100.00
15050;BME280;7622;42.724;23.250;2022-11-15T13:20:18;94733.25;;;9.44;100.00
15050;BME280;7622;42.724;23.250;2022-11-15T13:22:47;94749.34;;;9.57;100.00
15050;BME280;7622;42.724;23.250;2022-11-15T13:25:21;94740.63;;;9.58;100.00
15050;BME280;7622;42.724;23.250;2022-11-15T13:27:50;94742.94;;;9.52;100.00
15050;BME280;7622;42.724;23.250;2022-11-15T13:30:21;94739.81;;;9.67;100.00
15050;BME280;7622;42.724;23.250;2022-11-15T13:32:50;94716.03;;;9.43;100.00